createdAt,value
2023-05-01T00:00:40.833Z,416.00
2023-05-01T00:05:40.150Z,416.00
2023-05-01T00:10:39.399Z,421.70
2023-05-01T00:15:38.652Z,421.70
2023-05-01T00:20:37.924Z,420.80
2023-05-01T00:25:37.201Z,413.70
2023-05-01T00:30:36.466Z,421.70
2023-05-01T00:35:35.761Z,405.20
2023-05-01T00:40:36.024Z,413.40
2023-05-01T00:45:34.325Z,415.10
2023-05-01T00:50:34.569Z,422.10
2023-05-01T00:55:32.826Z,415.10
2023-05-01T01:00:31.124Z,415.60
2023-05-01T01:05:32.430Z,413.00
2023-05-01T01:10:31.681Z,413.00
2023-05-01T01:15:30.956Z,387.60
2023-05-01T01:20:30.258Z,427.10
2023-05-01T01:25:28.503Z,401.80
2023-05-01T01:30:28.782Z,434.60
2023-05-01T01:35:27.051Z,430.50
2023-05-01T01:40:26.325Z,419.00
2023-05-01T01:45:26.577Z,409.70
2023-05-01T01:50:24.844Z,422.30
2023-05-01T01:55:26.096Z,430.20
2023-05-01T02:00:23.348Z,430.20
2023-05-01T02:05:23.584Z,425.80
2023-05-01T02:10:23.836Z,416.70
2023-05-01T02:15:21.098Z,420.10
2023-05-01T02:20:21.354Z,424.10
2023-05-01T02:25:20.608Z,430.80
2023-05-01T02:30:19.907Z,396.40
2023-05-01T02:35:19.204Z,420.70
2023-05-01T02:40:17.467Z,419.30
2023-05-01T02:45:16.764Z,439.50
2023-05-01T02:50:16.052Z,420.80
2023-05-01T02:55:16.509Z,400.40
2023-05-01T03:00:15.583Z,387.40
2023-05-01T03:05:14.848Z,427.60
2023-05-01T03:10:14.099Z,413.30
2023-05-01T03:15:13.402Z,410.90
2023-05-01T03:20:11.659Z,411.20
2023-05-01T03:25:10.923Z,404.00
2023-05-01T03:30:11.202Z,388.70
2023-05-01T03:35:09.550Z,364.80
2023-05-01T03:40:08.744Z,417.40
2023-05-01T03:45:10.109Z,424.30
2023-05-01T03:50:07.324Z,329.30
2023-05-01T03:55:07.592Z,310.30
2023-05-01T04:00:06.873Z,281.80
2023-05-01T04:05:05.159Z,306.80
2023-05-01T04:10:05.432Z,360.90
2023-05-01T04:15:03.673Z,438.40
2023-05-01T04:20:02.923Z,416.20
2023-05-01T04:25:03.201Z,442.00
2023-05-01T04:30:01.511Z,428.70
2023-05-01T04:35:01.785Z,433.30
2023-05-01T04:40:01.022Z,417.10
2023-05-01T04:44:59.273Z,412.40
2023-05-01T04:49:57.837Z,383.30
2023-05-01T04:54:57.977Z,404.70
2023-05-01T04:59:58.485Z,385.70
2023-05-01T05:04:58.206Z,413.20
2023-05-01T05:09:56.650Z,417.40
2023-05-01T05:14:53.698Z,406.80
2023-05-01T05:19:55.331Z,406.80
2023-05-01T05:24:53.247Z,401.40
2023-05-01T05:29:53.641Z,401.40
2023-05-01T05:34:51.821Z,412.70
2023-05-01T05:39:50.905Z,438.90
2023-05-01T05:44:52.268Z,415.00
2023-05-01T05:49:49.342Z,415.00
2023-05-01T05:54:49.627Z,415.00
2023-05-01T05:59:48.924Z,415.00
2023-05-01T06:04:47.235Z,436.60
2023-05-01T06:09:46.510Z,443.80
2023-05-01T06:14:45.789Z,408.50
2023-05-01T06:19:46.088Z,394.70
2023-05-01T06:24:45.391Z,386.50
2023-05-01T06:29:44.659Z,408.20
2023-05-01T06:34:42.948Z,434.20
2023-05-01T06:39:42.227Z,409.90
2023-05-01T06:44:41.520Z,377.70
2023-05-01T06:49:40.811Z,370.60
2023-05-01T06:54:40.116Z,414.90
2023-05-01T06:59:40.435Z,439.70
2023-05-01T07:04:39.727Z,402.80
2023-05-01T07:09:38.017Z,439.00
2023-05-01T07:14:37.383Z,424.50
2023-05-01T07:19:36.447Z,446.60
2023-05-01T07:24:35.718Z,413.00
2023-05-01T07:29:35.006Z,395.90
2023-05-01T07:34:34.265Z,448.50
2023-05-01T07:39:33.563Z,391.50
2023-05-01T07:44:32.840Z,418.40
2023-05-01T07:49:32.097Z,407.90
2023-05-01T07:54:31.328Z,386.70
2023-05-01T07:59:29.603Z,406.50
2023-05-01T08:04:29.912Z,411.60
2023-05-01T08:09:30.217Z,402.30
2023-05-01T08:14:28.518Z,412.40
2023-05-01T08:19:27.806Z,400.70
2023-05-01T08:24:27.080Z,395.30
2023-05-01T08:29:26.390Z,393.60
2023-05-01T08:34:25.678Z,416.50
2023-05-01T08:39:24.991Z,378.10
2023-05-01T08:44:24.266Z,208.10
2023-05-01T08:49:25.561Z,208.90
2023-05-01T08:54:22.839Z,208.90
2023-05-01T08:59:23.113Z,211.00
2023-05-01T09:04:21.446Z,375.90
2023-05-01T09:09:21.528Z,411.40
2023-05-01T09:14:19.763Z,471.60
2023-05-01T09:19:20.038Z,427.40
2023-05-01T09:24:20.316Z,430.70
2023-05-01T09:29:17.583Z,451.00
2023-05-01T09:34:17.846Z,465.90
2023-05-01T09:39:17.143Z,424.90
2023-05-01T09:44:15.426Z,479.90
2023-05-01T09:49:16.720Z,435.50
2023-05-01T09:54:14.030Z,413.90
2023-05-01T09:59:14.342Z,400.30
2023-05-01T10:04:13.670Z,395.40
2023-05-01T10:09:11.970Z,386.10
2023-05-01T10:14:12.293Z,370.80
2023-05-01T10:19:10.620Z,370.80
2023-05-01T10:24:09.900Z,350.70
2023-05-01T10:29:10.195Z,351.10
2023-05-01T10:34:08.462Z,352.40
2023-05-01T10:39:09.778Z,352.40
2023-05-01T10:44:07.027Z,352.40
2023-05-01T10:49:06.301Z,352.40
2023-05-01T10:54:05.597Z,352.40
2023-05-01T10:59:04.950Z,352.40
2023-05-01T11:04:06.005Z,352.40
2023-05-01T11:09:04.237Z,352.40
2023-05-01T11:14:02.499Z,352.40
2023-05-01T11:19:01.725Z,352.40
2023-05-01T11:24:00.982Z,352.40
2023-05-01T11:29:00.216Z,352.40
2023-05-01T11:33:59.444Z,352.40
2023-05-01T11:38:58.688Z,352.40
2023-05-01T11:43:58.968Z,352.40
2023-05-01T11:48:57.238Z,352.40
2023-05-01T11:53:55.534Z,352.40
2023-05-01T11:58:55.808Z,352.40
2023-05-01T12:03:56.196Z,352.40
2023-05-01T12:08:54.289Z,352.40
2023-05-01T12:13:54.567Z,352.40
2023-05-01T12:18:52.893Z,352.40
2023-05-01T12:23:53.090Z,352.40
2023-05-01T12:28:51.252Z,352.40
2023-05-01T12:33:50.405Z,352.40
2023-05-01T12:38:50.540Z,352.40
2023-05-01T12:43:48.876Z,352.40
2023-05-01T12:48:50.953Z,352.40
2023-05-01T12:53:47.320Z,352.40
2023-05-01T12:58:47.493Z,352.40
2023-05-01T13:03:45.669Z,352.40
2023-05-01T13:08:44.829Z,352.40
2023-05-01T13:13:43.989Z,352.40
2023-05-01T13:18:43.160Z,352.40
2023-05-01T13:23:44.308Z,352.40
2023-05-01T13:28:42.702Z,352.40
2023-05-01T13:33:39.844Z,352.40
2023-05-01T13:38:40.068Z,352.40
2023-05-01T13:43:40.220Z,352.40
2023-05-01T13:48:39.384Z,352.40
2023-05-01T13:53:37.529Z,352.40
2023-05-01T13:58:36.688Z,352.40
2023-05-01T14:03:37.037Z,352.40
2023-05-01T14:08:37.041Z,352.40
2023-05-01T14:13:34.177Z,352.40
2023-05-01T14:18:33.331Z,352.40
2023-05-01T14:23:32.471Z,352.40
2023-05-01T14:28:31.820Z,352.40
2023-05-01T14:33:30.970Z,352.40
2023-05-01T14:38:32.118Z,352.40
2023-05-01T14:43:30.453Z,352.40
